createdAt,value
2022-12-27T00:00:11.486Z,973.63
2022-12-27T00:01:01.546Z,973.63
2022-12-27T00:01:51.473Z,973.69
2022-12-27T00:02:41.563Z,973.70
2022-12-27T00:03:31.430Z,973.78
2022-12-27T00:04:21.425Z,973.70
2022-12-27T00:05:11.417Z,973.71
2022-12-27T00:06:01.427Z,973.73
2022-12-27T00:06:51.395Z,973.67
2022-12-27T00:07:41.398Z,973.71
2022-12-27T00:08:31.383Z,973.71
2022-12-27T00:09:21.377Z,973.66
2022-12-27T00:10:11.358Z,973.66
2022-12-27T00:11:01.366Z,973.80
2022-12-27T00:11:56.323Z,973.80
2022-12-27T00:12:42.334Z,973.79
2022-12-27T00:13:31.328Z,973.81
2022-12-27T00:14:21.312Z,973.76
2022-12-27T00:15:11.303Z,973.81
2022-12-27T00:16:01.342Z,973.83
2022-12-27T00:16:51.318Z,973.81
2022-12-27T00:17:41.280Z,973.84
2022-12-27T00:18:31.262Z,973.79
2022-12-27T00:19:21.272Z,973.81
2022-12-27T00:20:11.983Z,973.73
2022-12-27T00:21:01.261Z,973.79
2022-12-27T00:21:51.221Z,973.81
2022-12-27T00:22:41.218Z,973.82
2022-12-27T00:23:31.213Z,973.88
2022-12-27T00:24:21.218Z,973.74
2022-12-27T00:25:11.207Z,973.69
2022-12-27T00:26:01.203Z,973.79
2022-12-27T00:26:51.194Z,973.81
2022-12-27T00:27:41.181Z,973.78
2022-12-27T00:28:31.157Z,973.76
2022-12-27T00:29:21.161Z,973.78
2022-12-27T00:30:11.147Z,973.67
2022-12-27T00:31:01.146Z,973.65
2022-12-27T00:31:51.243Z,973.74
2022-12-27T00:32:41.115Z,973.72
2022-12-27T00:33:31.101Z,973.75
2022-12-27T00:34:21.091Z,973.72
2022-12-27T00:35:11.091Z,973.73
2022-12-27T00:36:01.093Z,973.83
2022-12-27T00:36:51.068Z,973.77
2022-12-27T00:37:41.055Z,973.83
2022-12-27T00:38:31.044Z,973.82
2022-12-27T00:39:21.042Z,973.71
2022-12-27T00:40:11.065Z,973.82
2022-12-27T00:41:01.034Z,973.84
2022-12-27T00:41:51.010Z,973.88
2022-12-27T00:42:41.000Z,973.90
2022-12-27T00:43:30.988Z,973.87
2022-12-27T00:44:20.991Z,973.91
2022-12-27T00:45:10.983Z,973.89
2022-12-27T00:46:01.023Z,973.93
2022-12-27T00:46:50.958Z,973.93
2022-12-27T00:47:40.951Z,974.07
2022-12-27T00:48:30.931Z,973.99
2022-12-27T00:49:20.929Z,973.96
2022-12-27T00:50:10.919Z,974.02
2022-12-27T00:51:00.930Z,974.04
2022-12-27T00:51:50.900Z,974.01
2022-12-27T00:52:40.896Z,974.08
2022-12-27T00:53:30.898Z,974.15
2022-12-27T00:54:20.878Z,974.16
2022-12-27T00:55:10.870Z,974.18
2022-12-27T00:56:00.873Z,974.23
2022-12-27T00:56:50.862Z,974.19
2022-12-27T00:57:40.837Z,974.19
2022-12-27T00:58:30.828Z,974.26
2022-12-27T00:59:20.820Z,974.27
2022-12-27T01:00:10.959Z,974.21
2022-12-27T01:01:00.835Z,974.27
2022-12-27T01:01:50.887Z,974.31
2022-12-27T01:02:40.777Z,974.23
2022-12-27T01:03:30.807Z,974.22
2022-12-27T01:04:20.770Z,974.25
2022-12-27T01:05:10.765Z,974.26
2022-12-27T01:06:00.763Z,974.21
2022-12-27T01:06:50.736Z,974.23
2022-12-27T01:07:40.717Z,974.23
2022-12-27T01:08:30.736Z,974.24
2022-12-27T01:09:20.705Z,974.17
2022-12-27T01:10:10.715Z,974.23
2022-12-27T01:11:00.703Z,974.27
2022-12-27T01:11:50.679Z,974.27
2022-12-27T01:12:40.665Z,974.27
2022-12-27T01:13:30.666Z,974.31
2022-12-27T01:14:20.650Z,974.28
2022-12-27T01:15:10.653Z,974.36
2022-12-27T01:16:00.646Z,974.36
2022-12-27T01:16:50.648Z,974.35
2022-12-27T01:17:40.624Z,974.33
2022-12-27T01:18:30.605Z,974.40
2022-12-27T01:19:20.594Z,974.47
2022-12-27T01:20:10.609Z,974.47
2022-12-27T01:21:00.583Z,974.47
2022-12-27T01:21:50.575Z,974.53
2022-12-27T01:22:40.555Z,974.55
2022-12-27T01:23:30.567Z,974.61
2022-12-27T01:24:20.544Z,974.59
2022-12-27T01:25:10.542Z,974.60
2022-12-27T01:26:00.539Z,974.60
2022-12-27T01:26:50.526Z,974.64
2022-12-27T01:27:40.503Z,974.60
2022-12-27T01:28:30.500Z,974.64
2022-12-27T01:29:20.487Z,974.60
2022-12-27T01:30:10.498Z,974.62
2022-12-27T01:31:00.483Z,974.71
2022-12-27T01:31:50.496Z,974.72
2022-12-27T01:32:40.454Z,974.70
2022-12-27T01:33:30.450Z,974.73
2022-12-27T01:34:20.436Z,974.76
2022-12-27T01:35:10.434Z,974.80
2022-12-27T01:36:00.430Z,974.75
2022-12-27T01:36:50.403Z,974.81
2022-12-27T01:37:40.391Z,974.83
2022-12-27T01:38:30.402Z,974.85
2022-12-27T01:39:20.379Z,974.86
2022-12-27T01:40:10.379Z,974.86
2022-12-27T01:41:00.389Z,974.83
2022-12-27T01:41:50.361Z,974.89
2022-12-27T01:42:40.341Z,974.93
2022-12-27T01:43:30.344Z,974.91
2022-12-27T01:44:20.323Z,974.93
2022-12-27T01:45:10.325Z,974.92
2022-12-27T01:46:00.333Z,974.94
2022-12-27T01:46:50.312Z,974.99
2022-12-27T01:47:40.293Z,975.00
2022-12-27T01:48:30.304Z,975.02
2022-12-27T01:49:20.271Z,975.00
2022-12-27T01:50:10.269Z,975.04
2022-12-27T01:51:00.273Z,975.06
2022-12-27T01:51:50.258Z,975.09
2022-12-27T01:52:40.229Z,975.07
2022-12-27T01:53:30.225Z,975.12
2022-12-27T01:54:20.214Z,975.12
2022-12-27T01:55:10.209Z,975.10
2022-12-27T01:56:00.210Z,975.12
2022-12-27T01:56:50.188Z,975.13
2022-12-27T01:57:40.197Z,975.15
2022-12-27T01:58:30.174Z,975.16
2022-12-27T01:59:20.157Z,975.19
2022-12-27T02:00:10.170Z,975.22
2022-12-27T02:01:00.224Z,975.24
2022-12-27T02:01:50.315Z,975.21
2022-12-27T02:02:40.288Z,975.22
2022-12-27T02:03:30.122Z,975.23
2022-12-27T02:04:20.127Z,975.24
2022-12-27T02:05:10.107Z,975.28
2022-12-27T02:06:00.127Z,975.25
2022-12-27T02:06:50.087Z,975.27
2022-12-27T02:07:40.071Z,975.26
2022-12-27T02:08:30.087Z,975.30
2022-12-27T02:09:20.049Z,975.29
2022-12-27T02:10:10.053Z,975.32
2022-12-27T02:11:00.052Z,975.33
2022-12-27T02:11:50.023Z,975.34
2022-12-27T02:12:47.012Z,975.38
2022-12-27T02:13:37.004Z,975.39
2022-12-27T02:14:23.466Z,975.36
2022-12-27T02:15:10.989Z,975.35
2022-12-27T02:15:59.989Z,975.38
2022-12-27T02:16:50.031Z,975.40
2022-12-27T02:17:39.956Z,975.44
2022-12-27T02:18:29.947Z,975.45
2022-12-27T02:19:19.939Z,975.51
2022-12-27T02:20:09.939Z,975.49
2022-12-27T02:20:59.935Z,975.50
2022-12-27T02:21:49.925Z,975.53
2022-12-27T02:22:39.900Z,975.49
2022-12-27T02:23:33.471Z,975.53
2022-12-27T02:24:20.890Z,975.53
2022-12-27T02:25:09.881Z,975.55
2022-12-27T02:25:59.884Z,975.55
2022-12-27T02:26:49.864Z,975.55
2022-12-27T02:27:39.849Z,975.52
2022-12-27T02:28:29.848Z,975.53
2022-12-27T02:29:19.834Z,975.52
2022-12-27T02:30:09.822Z,975.58
2022-12-27T02:30:59.941Z,975.58
2022-12-27T02:31:49.804Z,975.60
2022-12-27T02:32:39.792Z,975.56
2022-12-27T02:33:29.795Z,975.58
2022-12-27T02:34:19.801Z,975.62
2022-12-27T02:35:09.781Z,975.55
2022-12-27T02:35:59.771Z,975.56
2022-12-27T02:36:49.753Z,975.54
2022-12-27T02:37:39.764Z,975.55
2022-12-27T02:38:29.741Z,975.57
2022-12-27T02:39:19.722Z,975.57
2022-12-27T02:40:09.733Z,975.56
2022-12-27T02:40:59.715Z,975.56
2022-12-27T02:41:49.702Z,975.53
2022-12-27T02:42:39.691Z,975.52
2022-12-27T02:43:29.687Z,975.55
2022-12-27T02:44:19.671Z,975.55
2022-12-27T02:45:09.667Z,975.57
2022-12-27T02:45:59.676Z,975.52
2022-12-27T02:46:49.665Z,975.53
2022-12-27T02:47:39.644Z,975.52
2022-12-27T02:48:29.630Z,975.51
2022-12-27T02:49:19.624Z,975.57
2022-12-27T02:50:09.611Z,975.57
2022-12-27T02:50:59.603Z,975.62
2022-12-27T02:51:49.595Z,975.62
2022-12-27T02:52:39.579Z,975.61
2022-12-27T02:53:29.570Z,975.61
2022-12-27T02:54:19.558Z,975.64
2022-12-27T02:55:09.570Z,975.64
2022-12-27T02:55:59.556Z,975.67
2022-12-27T02:56:49.539Z,975.70
2022-12-27T02:57:39.522Z,975.72
2022-12-27T02:58:29.535Z,975.73
2022-12-27T02:59:19.507Z,975.74
2022-12-27T03:00:09.533Z,975.79
2022-12-27T03:00:59.527Z,975.80
2022-12-27T03:01:49.604Z,975.79
2022-12-27T03:02:39.548Z,975.81
2022-12-27T03:03:29.467Z,975.83
2022-12-27T03:04:19.446Z,975.80
2022-12-27T03:05:09.466Z,975.80
2022-12-27T03:05:59.446Z,975.84
2022-12-27T03:06:49.445Z,975.85
2022-12-27T03:07:39.427Z,975.80
2022-12-27T03:08:29.419Z,975.82
2022-12-27T03:09:19.395Z,975.83
2022-12-27T03:10:09.401Z,975.83
2022-12-27T03:10:59.401Z,975.85
2022-12-27T03:11:49.376Z,975.90
2022-12-27T03:12:39.365Z,975.89
2022-12-27T03:13:29.383Z,975.88
2022-12-27T03:14:19.338Z,975.91
2022-12-27T03:15:09.335Z,975.92
2022-12-27T03:15:59.417Z,975.93
2022-12-27T03:16:49.315Z,975.99
2022-12-27T03:17:39.307Z,975.97
2022-12-27T03:18:29.315Z,976.02
2022-12-27T03:19:19.292Z,976.04
2022-12-27T03:20:09.281Z,975.98
2022-12-27T03:20:59.282Z,976.01
2022-12-27T03:21:49.263Z,976.05
2022-12-27T03:22:39.252Z,976.04
2022-12-27T03:23:29.243Z,976.06
2022-12-27T03:24:19.238Z,976.08
2022-12-27T03:25:09.223Z,976.09
2022-12-27T03:25:59.226Z,976.09
2022-12-27T03:26:49.214Z,976.13
2022-12-27T03:27:39.194Z,976.10
2022-12-27T03:28:29.200Z,976.11
2022-12-27T03:29:19.171Z,976.10
2022-12-27T03:30:09.169Z,976.13
2022-12-27T03:30:59.222Z,976.16
2022-12-27T03:31:49.161Z,976.12
2022-12-27T03:32:39.131Z,976.11
2022-12-27T03:33:29.141Z,976.12
2022-12-27T03:34:19.140Z,976.11
2022-12-27T03:35:09.120Z,976.13
2022-12-27T03:35:59.139Z,976.12
2022-12-27T03:36:49.095Z,976.14
2022-12-27T03:37:39.102Z,976.14
2022-12-27T03:38:29.080Z,976.13
2022-12-27T03:39:19.071Z,976.15
2022-12-27T03:40:09.068Z,976.17
2022-12-27T03:40:59.063Z,976.18
2022-12-27T03:41:49.071Z,976.24
2022-12-27T03:42:39.030Z,976.21
2022-12-27T03:43:29.053Z,976.21
2022-12-27T03:44:19.008Z,976.22
2022-12-27T03:45:09.027Z,976.24
2022-12-27T03:45:59.027Z,976.25
2022-12-27T03:46:48.988Z,976.21
2022-12-27T03:47:38.978Z,976.21
2022-12-27T03:48:28.979Z,976.24
2022-12-27T03:49:18.963Z,976.20
2022-12-27T03:50:08.963Z,976.18
2022-12-27T03:50:59.033Z,976.13
2022-12-27T03:51:48.926Z,976.20
2022-12-27T03:52:38.917Z,976.11
2022-12-27T03:53:28.922Z,976.16
2022-12-27T03:54:18.903Z,976.14
2022-12-27T03:55:08.903Z,976.15
2022-12-27T03:55:58.908Z,976.15
2022-12-27T03:56:48.889Z,976.18
2022-12-27T03:57:38.864Z,976.16
2022-12-27T03:58:28.870Z,976.13
2022-12-27T03:59:18.847Z,976.17
2022-12-27T04:00:08.835Z,976.15
2022-12-27T04:00:58.843Z,976.15
2022-12-27T04:01:48.915Z,976.15
2022-12-27T04:02:38.987Z,976.19
2022-12-27T04:03:28.835Z,976.15
2022-12-27T04:04:18.795Z,976.17
2022-12-27T04:05:08.784Z,976.16
2022-12-27T04:05:58.783Z,976.17
2022-12-27T04:06:48.780Z,976.19
2022-12-27T04:07:38.763Z,976.18
2022-12-27T04:08:28.781Z,976.14
2022-12-27T04:09:18.731Z,976.13
2022-12-27T04:10:08.746Z,976.16
2022-12-27T04:10:58.746Z,976.17
2022-12-27T04:11:48.722Z,976.12
2022-12-27T04:12:38.710Z,976.12
2022-12-27T04:13:28.705Z,976.16
2022-12-27T04:14:18.684Z,976.14
2022-12-27T04:15:08.686Z,976.17
2022-12-27T04:15:58.703Z,976.14
2022-12-27T04:16:48.768Z,976.13
2022-12-27T04:17:38.659Z,976.10
2022-12-27T04:18:28.651Z,976.12
2022-12-27T04:19:18.629Z,976.09
2022-12-27T04:20:08.635Z,976.11
2022-12-27T04:20:58.622Z,976.11
2022-12-27T04:21:48.619Z,976.12
2022-12-27T04:22:38.594Z,976.15
2022-12-27T04:23:28.590Z,976.19
2022-12-27T04:24:18.578Z,976.17
2022-12-27T04:25:08.570Z,976.18
2022-12-27T04:25:58.570Z,976.18
2022-12-27T04:26:48.569Z,976.20
2022-12-27T04:27:38.538Z,976.20
2022-12-27T04:28:28.529Z,976.13
2022-12-27T04:29:18.518Z,976.20
2022-12-27T04:30:08.524Z,976.22
2022-12-27T04:30:58.548Z,976.21
2022-12-27T04:31:48.489Z,976.29
2022-12-27T04:32:38.490Z,976.20
2022-12-27T04:33:28.470Z,976.29
2022-12-27T04:34:18.455Z,976.27
2022-12-27T04:35:08.451Z,976.27
2022-12-27T04:36:04.292Z,976.27
2022-12-27T04:36:49.437Z,976.21
2022-12-27T04:37:38.437Z,976.25
2022-12-27T04:38:28.427Z,976.24
2022-12-27T04:39:18.425Z,976.28
2022-12-27T04:40:08.404Z,976.28
2022-12-27T04:40:58.408Z,976.22
2022-12-27T04:41:48.384Z,976.24
2022-12-27T04:42:38.377Z,976.25
2022-12-27T04:43:28.366Z,976.24
2022-12-27T04:44:18.366Z,976.27
2022-12-27T04:45:14.976Z,976.30
2022-12-27T04:45:59.355Z,976.33
2022-12-27T04:46:48.392Z,976.37
2022-12-27T04:47:38.325Z,976.40
2022-12-27T04:48:28.305Z,976.39
2022-12-27T04:49:18.305Z,976.38
2022-12-27T04:50:08.287Z,976.41
2022-12-27T04:50:58.309Z,976.41
2022-12-27T04:51:48.278Z,976.38
2022-12-27T04:52:38.267Z,976.43
2022-12-27T04:53:28.259Z,976.45
2022-12-27T04:54:18.243Z,976.44
2022-12-27T04:55:08.232Z,976.39
2022-12-27T04:55:58.248Z,976.39
2022-12-27T04:56:48.223Z,976.36
2022-12-27T04:57:38.225Z,976.41
2022-12-27T04:58:28.232Z,976.39
2022-12-27T04:59:18.202Z,976.35
2022-12-27T05:00:08.192Z,976.40
2022-12-27T05:00:58.191Z,976.33
2022-12-27T05:01:48.268Z,976.34
2022-12-27T05:02:38.312Z,976.32
2022-12-27T05:03:28.192Z,976.30
2022-12-27T05:04:18.144Z,976.30
2022-12-27T05:05:08.133Z,976.31
2022-12-27T05:05:58.131Z,976.27
2022-12-27T05:06:48.124Z,976.33
2022-12-27T05:07:38.118Z,976.30
2022-12-27T05:08:28.093Z,976.29
2022-12-27T05:09:23.070Z,976.34
2022-12-27T05:10:09.071Z,976.29
2022-12-27T05:10:58.083Z,976.31
2022-12-27T05:11:48.057Z,976.35
2022-12-27T05:12:38.049Z,976.35
2022-12-27T05:13:28.030Z,976.32
2022-12-27T05:14:18.059Z,976.29
2022-12-27T05:15:08.018Z,976.32
2022-12-27T05:15:58.065Z,976.32
2022-12-27T05:16:48.018Z,976.31
2022-12-27T05:17:38.008Z,976.31
2022-12-27T05:18:27.986Z,976.31
2022-12-27T05:19:17.976Z,976.31
2022-12-27T05:20:07.968Z,976.32
2022-12-27T05:20:57.968Z,976.32
2022-12-27T05:21:47.964Z,976.31
2022-12-27T05:22:37.947Z,976.34
2022-12-27T05:23:27.937Z,976.38
2022-12-27T05:24:17.926Z,976.37
2022-12-27T05:25:07.916Z,976.40
2022-12-27T05:25:57.904Z,976.41
2022-12-27T05:26:47.906Z,976.41
2022-12-27T05:27:37.884Z,976.41
2022-12-27T05:28:27.879Z,976.48
2022-12-27T05:29:17.865Z,976.46
2022-12-27T05:30:07.863Z,976.42
2022-12-27T05:30:57.927Z,976.41
2022-12-27T05:31:47.923Z,976.42
2022-12-27T05:32:37.836Z,976.39
2022-12-27T05:33:27.814Z,976.40
2022-12-27T05:34:17.816Z,976.40
2022-12-27T05:35:07.824Z,976.39
2022-12-27T05:35:57.794Z,976.40
2022-12-27T05:36:47.798Z,976.40
2022-12-27T05:37:37.783Z,976.40
2022-12-27T05:38:27.772Z,976.40
2022-12-27T05:39:17.763Z,976.37
2022-12-27T05:40:07.754Z,976.36
2022-12-27T05:40:57.741Z,976.37
2022-12-27T05:41:47.752Z,976.39
2022-12-27T05:42:37.723Z,976.37
2022-12-27T05:43:27.711Z,976.34
2022-12-27T05:44:17.701Z,976.35
2022-12-27T05:45:07.693Z,976.35
2022-12-27T05:45:57.693Z,976.35
2022-12-27T05:46:47.713Z,976.41
2022-12-27T05:47:37.682Z,976.37
2022-12-27T05:48:27.653Z,976.42
2022-12-27T05:49:17.655Z,976.38
2022-12-27T05:50:07.647Z,976.44
2022-12-27T05:50:57.639Z,976.46
2022-12-27T05:51:47.630Z,976.46
2022-12-27T05:52:40.971Z,976.47
2022-12-27T05:53:27.629Z,976.49
2022-12-27T05:54:17.635Z,976.56
2022-12-27T05:55:07.579Z,976.55
2022-12-27T05:55:57.587Z,976.55
2022-12-27T05:56:47.586Z,976.58
2022-12-27T05:57:37.564Z,976.57
2022-12-27T05:58:27.548Z,976.56
2022-12-27T05:59:17.571Z,976.53
2022-12-27T06:00:07.530Z,976.51
2022-12-27T06:00:57.541Z,976.54
2022-12-27T06:01:47.702Z,976.56
2022-12-27T06:02:37.740Z,976.59
2022-12-27T06:03:27.580Z,976.57
2022-12-27T06:04:17.485Z,976.60
2022-12-27T06:05:07.474Z,976.59
2022-12-27T06:05:57.470Z,976.62
2022-12-27T06:06:47.470Z,976.64
2022-12-27T06:07:37.449Z,976.65
2022-12-27T06:08:27.440Z,976.66
2022-12-27T06:09:17.457Z,976.66
2022-12-27T06:10:07.441Z,976.57
2022-12-27T06:10:57.414Z,976.60
2022-12-27T06:11:47.418Z,976.63
2022-12-27T06:12:37.404Z,976.64
2022-12-27T06:13:27.386Z,976.68
2022-12-27T06:14:17.376Z,976.73
2022-12-27T06:15:07.367Z,976.78
2022-12-27T06:15:57.372Z,976.76
2022-12-27T06:16:47.407Z,976.78
2022-12-27T06:17:37.346Z,976.76
2022-12-27T06:18:27.325Z,976.74
2022-12-27T06:19:17.324Z,976.78
2022-12-27T06:20:07.313Z,976.72
2022-12-27T06:20:57.314Z,976.75
2022-12-27T06:21:47.329Z,976.77
2022-12-27T06:22:37.291Z,976.82
2022-12-27T06:23:27.275Z,976.82
2022-12-27T06:24:17.277Z,976.81
2022-12-27T06:25:12.372Z,976.83
2022-12-27T06:25:58.259Z,976.90
2022-12-27T06:26:47.255Z,976.85
2022-12-27T06:27:37.246Z,976.86
2022-12-27T06:28:27.212Z,976.84
2022-12-27T06:29:17.236Z,976.80
2022-12-27T06:30:07.213Z,976.83
2022-12-27T06:30:57.200Z,976.84
2022-12-27T06:31:47.266Z,976.81
2022-12-27T06:32:37.195Z,976.86
2022-12-27T06:33:27.164Z,976.83
2022-12-27T06:34:17.162Z,976.86
2022-12-27T06:35:07.163Z,976.80
2022-12-27T06:35:57.146Z,976.81
2022-12-27T06:36:47.148Z,976.83
2022-12-27T06:37:37.123Z,976.85
2022-12-27T06:38:27.114Z,976.79
2022-12-27T06:39:17.111Z,976.81
2022-12-27T06:40:07.094Z,976.80
2022-12-27T06:40:57.092Z,976.81
2022-12-27T06:41:47.093Z,976.77
2022-12-27T06:42:37.079Z,976.84
2022-12-27T06:43:27.056Z,976.77
2022-12-27T06:44:17.061Z,976.76
2022-12-27T06:45:07.048Z,976.82
2022-12-27T06:45:57.150Z,976.81
2022-12-27T06:46:47.032Z,976.79
2022-12-27T06:47:37.015Z,976.83
2022-12-27T06:48:26.998Z,976.81
2022-12-27T06:49:17.002Z,976.80
2022-12-27T06:50:06.990Z,976.83
2022-12-27T06:50:56.984Z,976.78
2022-12-27T06:51:46.987Z,976.80
2022-12-27T06:52:36.958Z,976.84
2022-12-27T06:53:26.958Z,976.85
2022-12-27T06:54:16.946Z,976.83
2022-12-27T06:55:06.941Z,976.83
2022-12-27T06:55:56.917Z,976.85
2022-12-27T06:56:46.917Z,976.87
2022-12-27T06:57:36.910Z,976.88
2022-12-27T06:58:26.901Z,976.83
2022-12-27T06:59:16.886Z,976.88
2022-12-27T07:00:06.883Z,976.84
2022-12-27T07:00:56.929Z,976.90
2022-12-27T07:01:46.968Z,976.85
2022-12-27T07:02:36.936Z,976.85
2022-12-27T07:03:26.839Z,976.86
2022-12-27T07:04:16.835Z,976.85
2022-12-27T07:05:06.832Z,976.88
2022-12-27T07:05:56.815Z,976.89
2022-12-27T07:06:46.819Z,976.88
2022-12-27T07:07:36.806Z,976.92
2022-12-27T07:08:26.789Z,976.90
2022-12-27T07:09:16.790Z,976.95
2022-12-27T07:10:06.786Z,976.91
2022-12-27T07:10:56.764Z,976.89
2022-12-27T07:11:46.767Z,976.91
2022-12-27T07:12:37.152Z,976.94
2022-12-27T07:13:26.732Z,976.94
2022-12-27T07:14:16.726Z,976.97
2022-12-27T07:15:06.720Z,977.01
2022-12-27T07:15:56.709Z,977.00
2022-12-27T07:16:46.754Z,976.95
2022-12-27T07:17:36.687Z,976.99
2022-12-27T07:18:26.672Z,976.99
2022-12-27T07:19:16.664Z,977.01
2022-12-27T07:20:06.665Z,977.00
2022-12-27T07:20:56.654Z,977.02
2022-12-27T07:21:46.655Z,977.05
2022-12-27T07:22:36.660Z,977.04
2022-12-27T07:23:26.624Z,977.04
2022-12-27T07:24:16.627Z,977.06
2022-12-27T07:25:06.611Z,977.05
2022-12-27T07:25:56.594Z,977.02
2022-12-27T07:26:46.626Z,977.04
2022-12-27T07:27:36.585Z,977.04
2022-12-27T07:28:26.572Z,977.00
2022-12-27T07:29:16.568Z,977.05
2022-12-27T07:30:06.562Z,977.08
2022-12-27T07:30:56.549Z,977.06
2022-12-27T07:31:46.596Z,977.04
2022-12-27T07:32:36.522Z,977.04
2022-12-27T07:33:26.514Z,977.09
2022-12-27T07:34:16.518Z,977.09
2022-12-27T07:35:06.490Z,977.09
2022-12-27T07:35:56.499Z,977.10
2022-12-27T07:36:46.493Z,977.14
2022-12-27T07:37:36.473Z,977.16
2022-12-27T07:38:26.450Z,977.14
2022-12-27T07:39:16.457Z,977.12
2022-12-27T07:40:06.447Z,977.16
2022-12-27T07:40:56.430Z,977.16
2022-12-27T07:41:46.437Z,977.20
2022-12-27T07:42:36.408Z,977.19
2022-12-27T07:43:26.406Z,977.17
2022-12-27T07:44:16.401Z,977.16
2022-12-27T07:45:06.409Z,977.15
2022-12-27T07:45:56.447Z,977.15
2022-12-27T07:46:46.377Z,977.16
2022-12-27T07:47:36.366Z,977.17
2022-12-27T07:48:26.347Z,977.17
2022-12-27T07:49:17.998Z,977.21
2022-12-27T07:50:06.325Z,977.20
2022-12-27T07:50:56.343Z,977.20
2022-12-27T07:51:46.367Z,977.18
2022-12-27T07:52:36.308Z,977.18
2022-12-27T07:53:26.312Z,977.17
2022-12-27T07:54:16.286Z,977.19
2022-12-27T07:55:06.274Z,977.20
2022-12-27T07:55:56.274Z,977.24
2022-12-27T07:56:46.296Z,977.17
2022-12-27T07:57:36.259Z,977.25
2022-12-27T07:58:26.259Z,977.25
2022-12-27T07:59:16.239Z,977.22
2022-12-27T08:00:06.221Z,977.17
2022-12-27T08:00:56.261Z,977.16
2022-12-27T08:01:46.350Z,977.17
2022-12-27T08:02:36.250Z,977.15
2022-12-27T08:03:26.244Z,977.16
2022-12-27T08:04:16.183Z,977.13
2022-12-27T08:05:06.174Z,977.16
2022-12-27T08:05:56.155Z,977.10
2022-12-27T08:06:46.167Z,977.13
2022-12-27T08:07:36.164Z,977.08
2022-12-27T08:08:26.124Z,977.12
2022-12-27T08:09:16.120Z,977.12
2022-12-27T08:10:06.114Z,977.12
2022-12-27T08:11:00.564Z,977.14
2022-12-27T08:11:47.116Z,977.13
2022-12-27T08:12:36.082Z,977.15
2022-12-27T08:13:26.073Z,977.12
2022-12-27T08:14:16.081Z,977.15
2022-12-27T08:15:06.070Z,977.17
2022-12-27T08:15:56.055Z,977.17
2022-12-27T08:16:46.094Z,977.20
2022-12-27T08:17:36.022Z,977.18
2022-12-27T08:18:26.035Z,977.11
2022-12-27T08:19:16.011Z,977.15
2022-12-27T08:20:06.001Z,977.08
2022-12-27T08:20:56.008Z,977.10
2022-12-27T08:21:46.029Z,977.03
2022-12-27T08:22:35.979Z,977.09
2022-12-27T08:23:25.979Z,977.07
2022-12-27T08:24:15.958Z,977.08
2022-12-27T08:25:05.950Z,977.07
2022-12-27T08:25:55.932Z,977.04
2022-12-27T08:26:45.948Z,977.06
2022-12-27T08:27:35.919Z,977.09
2022-12-27T08:28:25.910Z,977.06
2022-12-27T08:29:15.931Z,977.02
2022-12-27T08:30:05.917Z,977.04
2022-12-27T08:30:55.929Z,977.05
2022-12-27T08:31:45.917Z,977.06
2022-12-27T08:32:35.867Z,977.06
2022-12-27T08:33:25.861Z,977.02
2022-12-27T08:34:15.853Z,977.06
2022-12-27T08:35:33.381Z,977.01
2022-12-27T08:35:56.830Z,977.01
2022-12-27T08:36:55.096Z,977.04
2022-12-27T08:37:36.828Z,977.01
2022-12-27T08:38:25.823Z,976.99
2022-12-27T08:39:15.786Z,977.00
2022-12-27T08:40:05.799Z,977.01
2022-12-27T08:40:55.785Z,977.04
2022-12-27T08:41:45.787Z,977.01
2022-12-27T08:42:35.765Z,977.01
2022-12-27T08:43:25.752Z,976.99
2022-12-27T08:44:15.737Z,977.03
2022-12-27T08:45:05.753Z,977.04
2022-12-27T08:45:55.789Z,977.06
2022-12-27T08:46:45.738Z,977.05
2022-12-27T08:47:35.695Z,977.04
2022-12-27T08:48:25.756Z,977.05
2022-12-27T08:49:15.690Z,977.04
2022-12-27T08:50:05.744Z,977.06
2022-12-27T08:50:55.682Z,977.07
2022-12-27T08:51:45.699Z,977.05
2022-12-27T08:52:37.105Z,977.11
2022-12-27T08:53:25.680Z,977.15
2022-12-27T08:54:15.625Z,977.10
2022-12-27T08:55:05.631Z,977.14
2022-12-27T08:55:55.615Z,977.14
2022-12-27T08:56:45.623Z,977.19
2022-12-27T08:57:35.597Z,977.20
2022-12-27T08:58:25.582Z,977.18
2022-12-27T08:59:15.574Z,977.15
2022-12-27T09:00:05.582Z,977.13
2022-12-27T09:00:55.573Z,977.19
2022-12-27T09:01:45.689Z,977.17
2022-12-27T09:02:35.557Z,977.16
2022-12-27T09:03:25.559Z,977.13
2022-12-27T09:04:15.519Z,977.11
2022-12-27T09:05:05.518Z,977.16
2022-12-27T09:05:55.499Z,977.09
2022-12-27T09:06:45.783Z,977.11
2022-12-27T09:07:35.492Z,977.08
2022-12-27T09:08:25.472Z,977.10
2022-12-27T09:09:15.466Z,977.10
2022-12-27T09:10:05.454Z,977.08
2022-12-27T09:10:55.452Z,977.07
2022-12-27T09:11:45.450Z,977.13
2022-12-27T09:12:35.439Z,977.07
2022-12-27T09:13:25.426Z,977.11
2022-12-27T09:14:15.416Z,977.18
2022-12-27T09:15:05.416Z,977.17
2022-12-27T09:15:55.452Z,977.14
2022-12-27T09:16:45.400Z,977.17
2022-12-27T09:17:35.369Z,977.17
2022-12-27T09:18:32.371Z,977.17
2022-12-27T09:19:22.848Z,977.18
2022-12-27T09:20:05.348Z,977.19
2022-12-27T09:20:55.318Z,977.20
2022-12-27T09:21:45.332Z,977.19
2022-12-27T09:22:35.316Z,977.22
2022-12-27T09:23:25.308Z,977.21
2022-12-27T09:24:15.299Z,977.20
2022-12-27T09:25:05.333Z,977.26
2022-12-27T09:25:55.290Z,977.27
2022-12-27T09:26:45.295Z,977.24
2022-12-27T09:27:35.268Z,977.20
2022-12-27T09:28:25.272Z,977.23
2022-12-27T09:29:15.258Z,977.24
2022-12-27T09:30:05.264Z,977.23
2022-12-27T09:30:55.263Z,977.18
2022-12-27T09:31:45.242Z,977.19
2022-12-27T09:32:35.219Z,977.21
2022-12-27T09:33:25.216Z,977.28
2022-12-27T09:34:15.188Z,977.27
2022-12-27T09:35:05.218Z,977.23
2022-12-27T09:35:55.168Z,977.23
2022-12-27T09:36:45.186Z,977.24
2022-12-27T09:37:35.167Z,977.29
2022-12-27T09:38:25.165Z,977.26
2022-12-27T09:39:15.149Z,977.30
2022-12-27T09:40:05.135Z,977.29
2022-12-27T09:40:55.115Z,977.29
2022-12-27T09:42:45.123Z,977.29
2022-12-27T09:43:02.944Z,977.32
2022-12-27T09:43:27.828Z,977.28
2022-12-27T09:44:15.100Z,977.28
2022-12-27T09:45:05.083Z,977.29
2022-12-27T09:45:55.138Z,977.28
2022-12-27T09:46:45.106Z,977.22
2022-12-27T09:47:35.044Z,977.30
2022-12-27T09:48:29.368Z,977.22
2022-12-27T09:49:16.045Z,977.27
2022-12-27T09:50:05.029Z,977.17
2022-12-27T09:50:55.014Z,977.23
2022-12-27T09:51:45.029Z,977.30
2022-12-27T09:52:35.012Z,977.28
2022-12-27T09:53:25.009Z,977.29
2022-12-27T09:54:14.973Z,977.27
2022-12-27T09:55:05.651Z,977.24
2022-12-27T09:55:54.971Z,977.24
2022-12-27T09:57:18.478Z,977.20
2022-12-27T09:57:35.951Z,977.24
2022-12-27T09:58:24.946Z,977.23
2022-12-27T09:59:14.923Z,977.31
2022-12-27T10:00:04.921Z,977.29
2022-12-27T10:00:54.901Z,977.26
2022-12-27T10:01:45.028Z,977.27
2022-12-27T10:02:35.001Z,977.26
2022-12-27T10:03:24.884Z,977.22
2022-12-27T10:04:14.909Z,977.26
2022-12-27T10:05:22.008Z,977.23
2022-12-27T10:05:56.586Z,977.25
2022-12-27T10:06:44.866Z,977.21
2022-12-27T10:07:34.851Z,977.24
2022-12-27T10:08:24.842Z,977.20
2022-12-27T10:09:14.817Z,977.22
2022-12-27T10:10:04.801Z,977.25
2022-12-27T10:10:54.799Z,977.27
2022-12-27T10:11:44.820Z,977.25
2022-12-27T10:12:34.782Z,977.29
2022-12-27T10:13:24.788Z,977.25
2022-12-27T10:14:14.762Z,977.26
2022-12-27T10:15:04.775Z,977.26
2022-12-27T10:15:54.818Z,977.27
2022-12-27T10:16:44.749Z,977.25
2022-12-27T10:17:34.719Z,977.27
2022-12-27T10:18:24.728Z,977.24
2022-12-27T10:19:14.697Z,977.22
2022-12-27T10:20:04.716Z,977.18
2022-12-27T10:20:54.702Z,977.17
2022-12-27T10:21:44.702Z,977.15
2022-12-27T10:22:34.669Z,977.18
2022-12-27T10:23:24.661Z,977.18